createdAt,value
2018-03-16T00:01:57.806Z,6.60
2018-03-16T00:04:25.316Z,6.70
2018-03-16T00:06:52.819Z,6.70
2018-03-16T00:09:21.099Z,6.80
2018-03-16T00:11:48.611Z,6.80
2018-03-16T00:14:16.124Z,6.70
2018-03-16T00:16:43.639Z,6.70
2018-03-16T00:19:11.894Z,6.70
2018-03-16T00:21:39.402Z,6.60
2018-03-16T00:24:06.883Z,6.60
2018-03-16T00:26:34.375Z,6.50
2018-03-16T00:29:01.884Z,6.40
2018-03-16T00:31:29.386Z,6.40
2018-03-16T00:33:56.891Z,6.30
2018-03-16T00:36:24.411Z,6.30
2018-03-16T00:38:52.679Z,6.20
2018-03-16T00:41:20.183Z,6.20
2018-03-16T00:43:48.467Z,6.30
2018-03-16T00:46:15.977Z,6.30
2018-03-16T00:48:43.496Z,6.40
2018-03-16T00:51:11.751Z,6.40
2018-03-16T00:53:39.235Z,6.40
2018-03-16T00:56:06.770Z,6.30
2018-03-16T00:58:34.246Z,6.30
2018-03-16T01:01:01.733Z,6.30
2018-03-16T01:03:29.252Z,6.30
2018-03-16T01:05:57.496Z,6.50
2018-03-16T01:08:24.976Z,6.40
2018-03-16T01:10:52.490Z,6.40
2018-03-16T01:13:20.854Z,6.70
2018-03-16T01:15:48.331Z,6.70
2018-03-16T01:18:15.823Z,6.70
2018-03-16T01:20:47.182Z,6.70
2018-03-16T01:23:15.442Z,6.80
2018-03-16T01:25:42.958Z,6.80
2018-03-16T01:28:10.447Z,6.70
2018-03-16T01:30:37.963Z,6.70
2018-03-16T01:33:06.227Z,6.60
2018-03-16T01:35:33.742Z,6.60
2018-03-16T01:38:01.252Z,6.70
2018-03-16T01:40:28.763Z,6.60
2018-03-16T01:42:56.287Z,6.60
2018-03-16T01:45:23.776Z,6.80
2018-03-16T01:47:51.294Z,6.70
2018-03-16T01:50:19.563Z,6.60
2018-03-16T01:52:58.830Z,6.60
2018-03-16T01:55:27.078Z,6.50
2018-03-16T01:57:54.587Z,6.50
2018-03-16T02:00:22.832Z,6.40
2018-03-16T02:02:50.344Z,6.40
2018-03-16T02:05:18.635Z,6.50
2018-03-16T02:07:46.889Z,6.50
2018-03-16T02:10:14.374Z,6.50
2018-03-16T02:12:41.898Z,6.40
2018-03-16T02:15:09.379Z,6.40
2018-03-16T02:17:36.915Z,6.40
2018-03-16T02:20:05.165Z,6.30
2018-03-16T02:22:32.654Z,6.30
2018-03-16T02:25:00.160Z,6.20
2018-03-16T02:27:27.654Z,6.10
2018-03-16T02:29:55.159Z,6.10
2018-03-16T02:32:22.676Z,6.20
2018-03-16T02:34:50.179Z,6.30
2018-03-16T02:37:17.693Z,6.30
2018-03-16T02:39:45.946Z,6.30
2018-03-16T02:42:13.455Z,6.30
2018-03-16T02:44:41.711Z,6.20
2018-03-16T02:47:09.226Z,6.10
2018-03-16T02:49:36.715Z,6.20
2018-03-16T02:52:04.235Z,6.30
2018-03-16T02:54:31.740Z,6.30
2018-03-16T02:56:59.246Z,6.40
2018-03-16T02:59:26.734Z,6.40
2018-03-16T03:01:54.241Z,6.30
2018-03-16T03:04:22.511Z,6.30
2018-03-16T03:06:49.991Z,6.30
2018-03-16T03:09:18.271Z,6.20
2018-03-16T03:11:46.550Z,6.30
2018-03-16T03:14:14.044Z,6.30
2018-03-16T03:16:42.319Z,6.50
2018-03-16T03:19:09.823Z,6.50
2018-03-16T03:21:37.335Z,6.40
2018-03-16T03:24:04.840Z,6.30
2018-03-16T03:26:33.096Z,6.20
2018-03-16T03:29:00.628Z,6.20
2018-03-16T03:31:28.180Z,6.20
2018-03-16T03:33:56.432Z,6.10
2018-03-16T03:36:23.947Z,6.10
2018-03-16T03:38:51.442Z,6.10
2018-03-16T03:41:18.963Z,6.10
2018-03-16T03:43:46.442Z,6.10
2018-03-16T03:46:14.746Z,6.40
2018-03-16T03:48:42.996Z,6.30
2018-03-16T03:51:10.514Z,6.30
2018-03-16T03:53:37.995Z,6.40
2018-03-16T03:56:05.502Z,6.30
2018-03-16T03:58:32.974Z,6.30
2018-03-16T04:01:00.486Z,6.30
2018-03-16T04:03:28.008Z,6.20
2018-03-16T04:05:55.600Z,6.20
2018-03-16T04:08:23.078Z,6.30
2018-03-16T04:10:50.562Z,6.30
2018-03-16T04:13:18.063Z,6.40
2018-03-16T04:15:45.587Z,6.50
2018-03-16T04:18:13.094Z,6.40
2018-03-16T04:20:40.595Z,6.50
2018-03-16T04:23:08.100Z,6.60
2018-03-16T04:25:35.608Z,6.60
2018-03-16T04:28:03.113Z,6.60
2018-03-16T04:30:31.395Z,6.60
2018-03-16T04:32:58.903Z,6.50
2018-03-16T04:35:26.379Z,6.40
2018-03-16T04:37:53.890Z,6.40
2018-03-16T04:40:21.401Z,6.30
2018-03-16T04:42:48.879Z,6.20
2018-03-16T04:45:16.386Z,6.10
2018-03-16T04:47:44.631Z,6.10
2018-03-16T04:50:12.147Z,6.10
2018-03-16T04:52:40.395Z,6.00
2018-03-16T04:55:07.900Z,6.00
2018-03-16T04:57:36.166Z,6.10
2018-03-16T05:00:03.639Z,6.00
2018-03-16T05:02:31.155Z,6.10
2018-03-16T05:04:58.659Z,6.10
2018-03-16T05:07:26.153Z,6.20
2018-03-16T05:09:53.756Z,6.20
2018-03-16T05:12:22.014Z,6.50
2018-03-16T05:14:49.488Z,6.50
2018-03-16T05:17:17.010Z,6.30
2018-03-16T05:19:44.486Z,6.40
2018-03-16T05:22:11.988Z,6.40
2018-03-16T05:24:39.474Z,6.30
2018-03-16T05:27:07.789Z,6.10
2018-03-16T05:29:35.300Z,6.10
2018-03-16T05:32:02.830Z,6.10
2018-03-16T05:34:31.103Z,6.10
2018-03-16T05:36:58.664Z,6.10
2018-03-16T05:39:26.200Z,6.10
2018-03-16T05:41:53.692Z,6.10
2018-03-16T05:44:21.200Z,6.10
2018-03-16T05:46:49.450Z,6.00
2018-03-16T05:49:17.026Z,6.00
2018-03-16T05:51:44.528Z,6.00
2018-03-16T05:54:12.779Z,6.00
2018-03-16T05:56:40.287Z,6.00
2018-03-16T05:59:08.562Z,6.20
2018-03-16T06:01:36.071Z,6.20
2018-03-16T06:04:03.563Z,6.30
2018-03-16T06:06:31.104Z,6.20
2018-03-16T06:08:59.351Z,6.40
2018-03-16T06:11:26.854Z,6.40
2018-03-16T06:13:55.115Z,6.60
2018-03-16T06:16:22.666Z,6.50
2018-03-16T06:18:50.938Z,6.40
2018-03-16T06:21:18.467Z,6.40
2018-03-16T06:23:46.006Z,6.40
2018-03-16T06:26:13.516Z,6.30
2018-03-16T06:28:41.077Z,6.30
2018-03-16T06:31:09.347Z,6.40
2018-03-16T06:33:36.911Z,6.40
2018-03-16T06:36:05.307Z,6.50
2018-03-16T06:38:32.827Z,6.40
2018-03-16T06:41:00.306Z,6.50
2018-03-16T06:43:27.868Z,6.60
2018-03-16T06:45:55.387Z,6.60
2018-03-16T06:48:22.872Z,6.50
2018-03-16T06:50:50.396Z,6.50
2018-03-16T06:53:17.937Z,6.50
2018-03-16T06:55:46.219Z,6.50
2018-03-16T06:58:13.735Z,6.50
2018-03-16T07:00:41.233Z,6.50
2018-03-16T07:03:08.788Z,6.50
2018-03-16T07:05:36.274Z,6.50
2018-03-16T07:08:03.782Z,6.60
2018-03-16T07:10:32.075Z,6.60
2018-03-16T07:13:00.339Z,6.70
2018-03-16T07:15:34.807Z,6.70
2018-03-16T07:18:03.071Z,6.70
2018-03-16T07:20:30.627Z,6.70
2018-03-16T07:22:58.126Z,6.70
2018-03-16T07:25:26.382Z,6.80
2018-03-16T07:27:53.887Z,6.80
2018-03-16T07:30:22.159Z,6.80
2018-03-16T07:32:49.707Z,6.80
2018-03-16T07:35:17.188Z,7.00
2018-03-16T07:37:44.703Z,6.90
2018-03-16T07:40:12.195Z,6.90
2018-03-16T07:42:39.710Z,6.90
2018-03-16T07:45:07.205Z,6.90
2018-03-16T07:47:35.698Z,6.90
2018-03-16T07:50:03.242Z,7.00
2018-03-16T07:52:30.751Z,7.00
2018-03-16T07:54:59.039Z,7.00
2018-03-16T07:57:26.567Z,7.00
2018-03-16T07:59:54.070Z,7.10
2018-03-16T08:02:22.346Z,7.20
2018-03-16T08:04:50.643Z,7.20
2018-03-16T08:07:18.935Z,7.20
2018-03-16T08:09:46.429Z,7.20
2018-03-16T08:12:13.937Z,7.30
2018-03-16T08:14:41.452Z,7.30
2018-03-16T08:17:09.752Z,7.60
2018-03-16T08:19:37.256Z,7.60
2018-03-16T08:22:04.827Z,7.50
2018-03-16T08:24:32.339Z,7.60
2018-03-16T08:26:59.822Z,7.60
2018-03-16T08:29:28.146Z,7.80
2018-03-16T08:31:55.626Z,7.80
2018-03-16T08:34:23.140Z,7.90
2018-03-16T08:36:50.748Z,8.00
2018-03-16T08:39:18.239Z,8.10
2018-03-16T08:41:45.726Z,8.00
2018-03-16T08:44:13.227Z,8.10
2018-03-16T08:46:40.737Z,8.10
2018-03-16T08:49:08.223Z,8.20
2018-03-16T08:51:35.743Z,8.30
2018-03-16T08:54:04.067Z,8.40
2018-03-16T08:56:31.555Z,8.40
2018-03-16T08:58:59.127Z,8.50
2018-03-16T09:01:26.643Z,8.60
2018-03-16T09:03:54.128Z,8.70
2018-03-16T09:06:22.375Z,8.80
2018-03-16T09:08:49.871Z,8.80
2018-03-16T09:11:17.354Z,8.80
2018-03-16T09:13:45.629Z,8.80
2018-03-16T09:16:13.108Z,8.80
2018-03-16T09:18:41.391Z,8.70
2018-03-16T09:21:08.919Z,8.80
2018-03-16T09:23:36.399Z,8.80
2018-03-16T09:26:03.879Z,8.80
2018-03-16T09:28:31.395Z,8.90
2018-03-16T09:30:59.745Z,8.90
2018-03-16T09:33:27.232Z,8.90
2018-03-16T09:35:54.770Z,8.90
2018-03-16T09:38:22.263Z,8.90
2018-03-16T09:40:49.771Z,8.80
2018-03-16T09:43:18.076Z,8.80
2018-03-16T09:45:45.601Z,8.80
2018-03-16T09:48:13.108Z,8.90
2018-03-16T09:50:41.479Z,8.90
2018-03-16T09:53:08.950Z,8.90
2018-03-16T09:55:42.371Z,9.00
2018-03-16T09:58:10.647Z,9.00
2018-03-16T10:00:38.159Z,9.00
2018-03-16T10:03:05.659Z,9.00
2018-03-16T10:05:33.163Z,9.10
2018-03-16T10:08:00.656Z,9.10
2018-03-16T10:10:28.161Z,9.10
2018-03-16T10:12:55.661Z,9.10
2018-03-16T10:15:23.139Z,9.20
2018-03-16T10:17:50.612Z,9.10
2018-03-16T10:20:18.123Z,9.10
2018-03-16T10:22:45.605Z,9.10
2018-03-16T10:25:13.120Z,9.10
2018-03-16T10:27:40.642Z,9.00
2018-03-16T10:30:08.175Z,9.00
2018-03-16T10:32:36.427Z,9.10
2018-03-16T10:35:03.923Z,9.10
2018-03-16T10:37:31.434Z,9.10
2018-03-16T10:39:58.922Z,9.10
2018-03-16T10:42:26.455Z,9.20
2018-03-16T10:44:54.703Z,9.30
2018-03-16T10:47:22.211Z,9.30
2018-03-16T10:49:51.340Z,9.40
2018-03-16T10:52:19.586Z,9.30
2018-03-16T10:54:47.100Z,9.30
2018-03-16T10:57:14.594Z,9.40
2018-03-16T10:59:42.127Z,9.40
2018-03-16T11:02:16.084Z,9.60
2018-03-16T11:04:43.611Z,9.60
2018-03-16T11:07:17.835Z,9.70
2018-03-16T11:09:45.361Z,9.80
2018-03-16T11:12:12.877Z,9.80
2018-03-16T11:14:40.362Z,9.90
2018-03-16T11:17:08.649Z,9.90
2018-03-16T11:19:36.899Z,9.90
2018-03-16T11:22:04.414Z,9.90
2018-03-16T11:24:32.699Z,9.80
2018-03-16T11:27:00.944Z,9.70
2018-03-16T11:29:28.434Z,9.70
2018-03-16T11:31:55.954Z,9.70
2018-03-16T11:34:23.427Z,9.70
2018-03-16T11:36:50.902Z,9.70
2018-03-16T11:39:18.423Z,9.60
2018-03-16T11:41:45.943Z,9.60
2018-03-16T11:44:13.504Z,9.40
2018-03-16T11:46:40.998Z,9.40
2018-03-16T11:49:08.478Z,9.40
2018-03-16T11:51:35.989Z,9.40
2018-03-16T11:54:03.475Z,9.40
2018-03-16T11:56:31.765Z,9.50
2018-03-16T11:59:00.059Z,9.50
2018-03-16T12:01:28.315Z,9.60
2018-03-16T12:03:55.811Z,9.60
2018-03-16T12:06:24.054Z,9.80
2018-03-16T12:08:51.566Z,9.80
2018-03-16T12:11:19.824Z,10.00
2018-03-16T12:13:47.356Z,10.00
2018-03-16T12:16:14.843Z,9.90
2018-03-16T12:18:43.115Z,9.90
2018-03-16T12:21:10.635Z,9.90
2018-03-16T12:23:38.252Z,10.00
2018-03-16T12:26:05.752Z,10.00
2018-03-16T12:28:49.476Z,10.10
2018-03-16T12:31:00.787Z,10.10
2018-03-16T12:33:28.294Z,10.20
2018-03-16T12:35:55.811Z,10.10
2018-03-16T12:38:23.303Z,10.20
2018-03-16T12:40:51.591Z,10.20
2018-03-16T12:43:19.861Z,10.20
2018-03-16T12:45:47.433Z,10.20
2018-03-16T12:48:14.955Z,10.20
2018-03-16T12:50:42.447Z,10.10
2018-03-16T12:53:09.967Z,10.10
2018-03-16T12:55:37.537Z,10.10
2018-03-16T12:58:05.944Z,10.20
2018-03-16T13:00:33.466Z,10.20
2018-03-16T13:03:00.987Z,10.10
2018-03-16T13:05:28.486Z,10.10
2018-03-16T13:07:56.012Z,10.30
2018-03-16T13:10:23.528Z,10.20
2018-03-16T13:12:51.039Z,10.30
2018-03-16T13:15:18.554Z,10.40
2018-03-16T13:17:46.070Z,10.40
2018-03-16T13:20:13.591Z,10.50
2018-03-16T13:22:41.094Z,10.60
2018-03-16T13:25:08.652Z,10.70
2018-03-16T13:27:36.149Z,10.80
2018-03-16T13:30:03.640Z,10.90
2018-03-16T13:32:31.946Z,11.10
2018-03-16T13:35:00.226Z,11.00
2018-03-16T13:37:27.774Z,11.00
2018-03-16T13:39:55.267Z,11.10
2018-03-16T13:42:22.799Z,11.10
2018-03-16T13:44:50.303Z,11.10
2018-03-16T13:47:17.891Z,10.90
2018-03-16T13:49:45.349Z,10.90
2018-03-16T13:52:12.909Z,10.90
2018-03-16T13:54:40.395Z,10.90
2018-03-16T13:57:07.882Z,10.90
2018-03-16T13:59:36.168Z,11.00
2018-03-16T14:02:04.446Z,11.00
2018-03-16T14:04:31.937Z,11.00
2018-03-16T14:06:59.443Z,10.80
2018-03-16T14:09:26.959Z,10.70
2018-03-16T14:11:54.503Z,10.80
2018-03-16T14:14:21.994Z,10.80
2018-03-16T14:16:49.525Z,10.90
2018-03-16T14:19:17.123Z,10.90
2018-03-16T14:21:44.646Z,10.80
2018-03-16T14:24:12.168Z,10.90
2018-03-16T14:26:39.665Z,10.90
2018-03-16T14:29:07.939Z,11.00
2018-03-16T14:31:35.451Z,11.00
2018-03-16T14:34:02.964Z,11.00
2018-03-16T14:36:30.483Z,11.00
2018-03-16T14:38:58.016Z,11.10
2018-03-16T14:41:25.541Z,11.00
2018-03-16T14:43:53.089Z,11.00
2018-03-16T14:46:21.341Z,10.70
2018-03-16T14:48:48.875Z,10.70
2018-03-16T14:51:16.461Z,10.60
2018-03-16T14:53:43.991Z,10.30
2018-03-16T14:56:12.279Z,10.20
2018-03-16T14:58:40.587Z,10.30
2018-03-16T15:01:08.122Z,10.30
2018-03-16T15:03:35.683Z,10.30
2018-03-16T15:06:03.180Z,10.20
2018-03-16T15:08:31.474Z,10.30
2018-03-16T15:10:59.775Z,10.30
2018-03-16T15:13:28.055Z,10.30
2018-03-16T15:15:56.362Z,10.40
2018-03-16T15:18:23.852Z,10.40
2018-03-16T15:20:51.370Z,10.40
2018-03-16T15:23:18.871Z,10.40
2018-03-16T15:25:47.171Z,10.20
2018-03-16T15:28:14.665Z,10.20
2018-03-16T15:30:42.187Z,10.10
2018-03-16T15:33:11.192Z,9.80
2018-03-16T15:35:38.715Z,9.80
2018-03-16T15:38:06.242Z,9.70
2018-03-16T15:40:33.758Z,9.50
2018-03-16T15:43:01.307Z,9.50
2018-03-16T15:45:28.820Z,9.50
2018-03-16T15:47:58.268Z,9.50
2018-03-16T15:50:26.571Z,9.20
2018-03-16T15:53:12.395Z,9.20
2018-03-16T15:55:39.964Z,9.20
2018-03-16T15:58:13.673Z,9.10
2018-03-16T16:03:34.338Z,9.00
2018-03-16T16:06:02.926Z,9.00
2018-03-16T16:08:43.846Z,8.90
2018-03-16T16:11:11.440Z,8.90
2018-03-16T16:13:38.976Z,8.80
2018-03-16T16:16:10.044Z,8.80
2018-03-16T16:18:37.817Z,8.70
2018-03-16T16:21:05.341Z,8.60
2018-03-16T16:26:25.593Z,8.40
2018-03-16T16:28:53.136Z,8.40
2018-03-16T16:31:41.522Z,8.10
2018-03-16T16:34:09.335Z,8.10
2018-03-16T16:39:43.695Z,7.90
2018-03-16T16:42:12.835Z,7.90
2018-03-16T16:44:43.918Z,7.80
2018-03-16T16:47:12.174Z,7.90
2018-03-16T16:52:41.482Z,7.80
2018-03-16T16:55:09.048Z,7.70
2018-03-16T16:57:37.297Z,7.40
2018-03-16T17:00:04.816Z,7.30
2018-03-16T17:02:32.354Z,7.30
2018-03-16T17:05:00.685Z,7.10
2018-03-16T17:07:28.202Z,7.10
2018-03-16T17:09:55.703Z,7.10
2018-03-16T17:12:24.034Z,7.00
2018-03-16T17:14:51.527Z,7.00
2018-03-16T17:17:19.059Z,6.90
2018-03-16T17:19:47.335Z,6.90
2018-03-16T17:22:15.595Z,6.90
2018-03-16T17:24:43.137Z,6.90
2018-03-16T17:27:10.635Z,6.80
2018-03-16T17:29:38.164Z,6.90
2018-03-16T17:32:05.724Z,6.70
2018-03-16T17:34:33.977Z,6.50
2018-03-16T17:37:04.876Z,6.50
2018-03-16T17:39:32.383Z,6.50
2018-03-16T17:41:59.928Z,6.50
2018-03-16T17:44:30.692Z,6.50
2018-03-16T17:46:58.572Z,6.40
2018-03-16T17:49:27.917Z,6.30
2018-03-16T17:51:55.413Z,6.20
2018-03-16T17:54:26.836Z,6.20
2018-03-16T17:56:55.292Z,6.10
2018-03-16T17:59:22.813Z,6.10
2018-03-16T18:01:50.369Z,5.80
2018-03-16T18:04:18.664Z,5.90
2018-03-16T18:06:46.159Z,5.90
2018-03-16T18:09:13.675Z,5.90
2018-03-16T18:11:41.220Z,5.80
2018-03-16T18:14:08.749Z,5.70
2018-03-16T18:16:36.248Z,5.60
2018-03-16T18:19:05.431Z,5.60
2018-03-16T18:21:33.715Z,5.60
2018-03-16T18:24:01.224Z,5.60
2018-03-16T18:26:28.753Z,5.50
2018-03-16T18:28:56.250Z,5.40
2018-03-16T18:34:09.297Z,5.40
2018-03-16T18:36:38.272Z,5.40
2018-03-16T18:41:58.592Z,5.40
2018-03-16T18:44:26.875Z,5.30
2018-03-16T18:46:54.428Z,5.20
2018-03-16T18:49:21.943Z,5.20
2018-03-16T18:51:49.455Z,5.20
2018-03-16T18:54:16.960Z,5.00
2018-03-16T18:56:44.477Z,4.90
2018-03-16T18:59:11.999Z,4.80
2018-03-16T19:01:40.257Z,4.80
2018-03-16T19:04:07.776Z,4.80
2018-03-16T19:06:35.351Z,4.80
2018-03-16T19:09:02.893Z,4.70
2018-03-16T19:11:30.437Z,4.80
2018-03-16T19:13:57.935Z,4.80
2018-03-16T19:16:25.471Z,4.60
2018-03-16T19:18:53.023Z,4.60
2018-03-16T19:21:20.512Z,4.60
2018-03-16T19:23:48.036Z,4.60
2018-03-16T19:26:15.547Z,4.60
2018-03-16T19:28:43.868Z,4.60
2018-03-16T19:31:11.321Z,4.50
2018-03-16T19:33:38.911Z,4.50
2018-03-16T19:36:06.397Z,4.60
2018-03-16T19:38:33.932Z,4.60
2018-03-16T19:41:01.433Z,4.50
2018-03-16T19:43:29.016Z,4.50
2018-03-16T19:45:56.557Z,4.40
2018-03-16T19:48:24.107Z,4.30
2018-03-16T19:50:51.649Z,4.30
2018-03-16T19:53:19.957Z,4.40
2018-03-16T19:55:47.510Z,4.40
2018-03-16T19:58:15.097Z,4.40
2018-03-16T20:00:42.676Z,4.20
2018-03-16T20:03:10.214Z,4.20
2018-03-16T20:05:37.867Z,4.20
2018-03-16T20:08:05.490Z,4.20
2018-03-16T20:10:33.052Z,4.20
2018-03-16T20:13:00.687Z,4.10
2018-03-16T20:15:28.276Z,3.90
2018-03-16T20:17:56.410Z,3.80
2018-03-16T20:20:24.829Z,3.80
2018-03-16T20:22:52.416Z,3.70
2018-03-16T20:25:20.034Z,3.80
2018-03-16T20:27:47.752Z,3.80
2018-03-16T20:30:15.355Z,3.90
2018-03-16T20:32:46.068Z,4.00
2018-03-16T20:35:14.483Z,3.80
2018-03-16T20:37:42.108Z,3.70
2018-03-16T20:40:10.676Z,3.70
2018-03-16T20:42:39.228Z,3.80
2018-03-16T20:45:06.825Z,3.80
2018-03-16T20:47:35.728Z,3.70
2018-03-16T20:50:03.275Z,3.70
2018-03-16T20:52:31.588Z,3.40
2018-03-16T20:54:59.319Z,3.40
2018-03-16T20:57:26.986Z,3.50
2018-03-16T20:59:54.642Z,3.60
2018-03-16T21:02:22.249Z,3.50
2018-03-16T21:04:49.900Z,3.70
2018-03-16T21:07:18.718Z,3.60
2018-03-16T21:09:46.337Z,3.50
2018-03-16T21:12:14.086Z,3.50
2018-03-16T21:14:42.537Z,3.40
2018-03-16T21:17:10.106Z,3.40
2018-03-16T21:19:38.637Z,3.20
2018-03-16T21:22:06.174Z,3.20
2018-03-16T21:24:33.721Z,3.10
2018-03-16T21:27:01.258Z,3.10
2018-03-16T21:29:28.860Z,3.10
2018-03-16T21:31:56.387Z,3.00
2018-03-16T21:34:23.955Z,2.90
2018-03-16T21:36:51.511Z,2.90
2018-03-16T21:39:19.655Z,2.90
2018-03-16T21:41:48.055Z,2.80
2018-03-16T21:44:15.555Z,2.80
2018-03-16T21:46:43.371Z,2.70
2018-03-16T21:49:10.989Z,2.70
2018-03-16T21:51:38.529Z,2.70
2018-03-16T21:54:06.106Z,2.70
2018-03-16T21:56:33.682Z,2.60
2018-03-16T21:59:01.247Z,2.60
2018-03-16T22:01:29.576Z,2.40
2018-03-16T22:03:57.075Z,2.40
2018-03-16T22:06:24.631Z,2.50
2018-03-16T22:08:53.002Z,2.50
2018-03-16T22:11:22.283Z,2.30
2018-03-16T22:13:49.824Z,2.30
2018-03-16T22:16:17.390Z,2.30
2018-03-16T22:18:45.011Z,2.40
2018-03-16T22:21:12.591Z,2.50
2018-03-16T22:23:40.128Z,2.40
2018-03-16T22:26:07.681Z,2.40
2018-03-16T22:28:35.200Z,2.40
2018-03-16T22:31:02.780Z,2.50
2018-03-16T22:33:31.082Z,2.40
2018-03-16T22:35:58.612Z,2.40
2018-03-16T22:38:26.882Z,2.40
2018-03-16T22:40:55.231Z,2.40
2018-03-16T22:43:22.776Z,2.40
2018-03-16T22:45:52.236Z,2.40
2018-03-16T22:48:19.837Z,2.40
2018-03-16T22:50:49.344Z,2.40
2018-03-16T22:53:17.069Z,2.50
2018-03-16T22:55:44.630Z,2.40
2018-03-16T22:58:12.226Z,2.50
2018-03-16T23:00:39.816Z,2.50
2018-03-16T23:03:07.384Z,2.50
2018-03-16T23:05:35.654Z,2.50
2018-03-16T23:08:04.039Z,2.40
2018-03-16T23:10:34.584Z,2.50
2018-03-16T23:13:02.168Z,2.40
2018-03-16T23:15:29.792Z,2.40
2018-03-16T23:17:57.436Z,2.30
2018-03-16T23:20:25.775Z,2.20
2018-03-16T23:22:53.935Z,2.20
2018-03-16T23:25:21.469Z,2.20
2018-03-16T23:27:49.019Z,2.10
2018-03-16T23:30:16.563Z,2.10
2018-03-16T23:32:44.071Z,2.00
2018-03-16T23:35:12.218Z,1.80
2018-03-16T23:37:39.800Z,1.90
2018-03-16T23:40:07.414Z,2.00
2018-03-16T23:42:36.000Z,2.00
2018-03-16T23:45:07.466Z,1.80
2018-03-16T23:47:35.137Z,1.60
2018-03-16T23:50:02.701Z,1.70
2018-03-16T23:52:30.973Z,1.80
2018-03-16T23:54:58.571Z,1.80
2018-03-16T23:57:26.111Z,1.90
2018-03-16T23:59:53.739Z,2.00
